createdAt,value
2022-12-26T00:00:59.027Z,8.10
2022-12-26T00:01:58.895Z,8.06
2022-12-26T00:02:59.003Z,8.03
2022-12-26T00:03:58.992Z,7.99
2022-12-26T00:04:58.935Z,7.97
2022-12-26T00:05:58.838Z,7.94
2022-12-26T00:06:58.838Z,7.92
2022-12-26T00:07:58.810Z,7.89
2022-12-26T00:08:58.798Z,7.86
2022-12-26T00:09:58.798Z,7.85
2022-12-26T00:10:58.806Z,7.83
2022-12-26T00:11:58.765Z,7.82
2022-12-26T00:13:38.445Z,7.81
2022-12-26T00:13:58.743Z,7.81
2022-12-26T00:14:58.741Z,7.81
2022-12-26T00:15:58.753Z,7.80
2022-12-26T00:16:58.724Z,7.80
2022-12-26T00:17:58.679Z,7.80
2022-12-26T00:18:58.678Z,7.80
2022-12-26T00:19:58.679Z,7.79
2022-12-26T00:20:58.666Z,7.78
2022-12-26T00:21:58.642Z,7.77
2022-12-26T00:22:58.643Z,7.76
2022-12-26T00:23:58.604Z,7.75
2022-12-26T00:24:58.600Z,7.73
2022-12-26T00:25:58.596Z,7.72
2022-12-26T00:26:58.571Z,7.70
2022-12-26T00:27:58.555Z,7.69
2022-12-26T00:28:58.546Z,7.68
2022-12-26T00:29:58.535Z,7.67
2022-12-26T00:30:58.549Z,7.67
2022-12-26T00:31:58.576Z,7.66
2022-12-26T00:32:58.495Z,7.65
2022-12-26T00:33:58.499Z,7.65
2022-12-26T00:34:58.481Z,7.64
2022-12-26T00:35:58.463Z,7.63
2022-12-26T00:36:58.448Z,7.62
2022-12-26T00:37:58.437Z,7.60
2022-12-26T00:38:58.431Z,7.59
2022-12-26T00:39:58.409Z,7.58
2022-12-26T00:40:58.399Z,7.57
2022-12-26T00:41:58.398Z,7.56
2022-12-26T00:42:58.386Z,7.56
2022-12-26T00:43:58.362Z,7.56
2022-12-26T00:44:58.345Z,7.57
2022-12-26T00:45:58.339Z,7.57
2022-12-26T00:46:58.513Z,7.58
2022-12-26T00:47:58.303Z,7.59
2022-12-26T00:48:58.324Z,7.59
2022-12-26T00:50:13.406Z,7.59
2022-12-26T00:50:58.319Z,7.59
2022-12-26T00:51:58.264Z,7.58
2022-12-26T00:52:58.248Z,7.58
2022-12-26T00:53:58.256Z,7.58
2022-12-26T00:54:58.222Z,7.58
2022-12-26T00:55:58.220Z,7.57
2022-12-26T00:56:58.207Z,7.57
2022-12-26T00:57:58.187Z,7.56
2022-12-26T00:58:58.205Z,7.55
2022-12-26T00:59:58.167Z,7.52
2022-12-26T01:00:58.211Z,7.50
2022-12-26T01:01:58.366Z,7.48
2022-12-26T01:02:58.252Z,7.46
2022-12-26T01:03:58.117Z,7.45
2022-12-26T01:04:58.099Z,7.44
2022-12-26T01:05:58.081Z,7.43
2022-12-26T01:06:58.085Z,7.43
2022-12-26T01:08:20.364Z,7.42
2022-12-26T01:08:58.057Z,7.42
2022-12-26T01:09:58.029Z,7.43
2022-12-26T01:10:58.050Z,7.44
2022-12-26T01:11:58.026Z,7.45
2022-12-26T01:12:58.017Z,7.45
2022-12-26T01:13:57.995Z,7.45
2022-12-26T01:14:57.978Z,7.44
2022-12-26T01:15:58.041Z,7.43
2022-12-26T01:16:57.981Z,7.42
2022-12-26T01:17:57.943Z,7.41
2022-12-26T01:18:57.926Z,7.39
2022-12-26T01:19:57.919Z,7.37
2022-12-26T01:20:57.901Z,7.36
2022-12-26T01:21:57.882Z,7.35
2022-12-26T01:22:57.890Z,7.34
2022-12-26T01:23:57.856Z,7.34
2022-12-26T01:24:57.854Z,7.35
2022-12-26T01:26:15.340Z,7.36
2022-12-26T01:26:57.842Z,7.37
2022-12-26T01:27:57.822Z,7.37
2022-12-26T01:28:57.797Z,7.37
2022-12-26T01:29:57.792Z,7.37
2022-12-26T01:30:57.803Z,7.38
2022-12-26T01:31:57.828Z,7.38
2022-12-26T01:32:57.771Z,7.38
2022-12-26T01:33:57.736Z,7.38
2022-12-26T01:34:57.742Z,7.38
2022-12-26T01:35:57.715Z,7.37
2022-12-26T01:36:57.705Z,7.35
2022-12-26T01:37:57.702Z,7.34
2022-12-26T01:38:57.673Z,7.33
2022-12-26T01:39:57.660Z,7.31
2022-12-26T01:40:57.653Z,7.31
2022-12-26T01:41:57.650Z,7.31
2022-12-26T01:42:57.626Z,7.32
2022-12-26T01:43:57.643Z,7.33
2022-12-26T01:44:57.603Z,7.33
2022-12-26T01:45:57.644Z,7.33
2022-12-26T01:46:57.575Z,7.34
2022-12-26T01:47:57.560Z,7.34
2022-12-26T01:48:57.557Z,7.34
2022-12-26T01:49:57.537Z,7.35
2022-12-26T01:50:57.528Z,7.35
2022-12-26T01:51:57.511Z,7.35
2022-12-26T01:52:57.501Z,7.36
2022-12-26T01:54:37.990Z,7.37
2022-12-26T01:54:57.482Z,7.38
2022-12-26T01:55:57.497Z,7.38
2022-12-26T01:56:57.472Z,7.38
2022-12-26T01:57:57.438Z,7.37
2022-12-26T01:58:57.444Z,7.36
2022-12-26T01:59:57.407Z,7.35
2022-12-26T02:00:57.420Z,7.35
2022-12-26T02:01:57.630Z,7.35
2022-12-26T02:02:57.487Z,7.35
2022-12-26T02:03:57.375Z,7.35
2022-12-26T02:04:57.375Z,7.34
2022-12-26T02:05:57.343Z,7.33
2022-12-26T02:06:57.327Z,7.33
2022-12-26T02:07:57.305Z,7.33
2022-12-26T02:08:57.303Z,7.33
2022-12-26T02:09:57.313Z,7.34
2022-12-26T02:10:57.276Z,7.35
2022-12-26T02:12:35.018Z,7.35
2022-12-26T02:12:57.248Z,7.35
2022-12-26T02:13:57.263Z,7.34
2022-12-26T02:14:57.263Z,7.33
2022-12-26T02:15:57.215Z,7.31
2022-12-26T02:16:57.240Z,7.30
2022-12-26T02:17:57.180Z,7.30
2022-12-26T02:18:57.186Z,7.29
2022-12-26T02:19:57.153Z,7.28
2022-12-26T02:20:57.156Z,7.28
2022-12-26T02:21:57.139Z,7.27
2022-12-26T02:22:57.133Z,7.27
2022-12-26T02:23:57.120Z,7.26
2022-12-26T02:24:57.092Z,7.25
2022-12-26T02:25:57.094Z,7.24
2022-12-26T02:26:57.073Z,7.22
2022-12-26T02:27:57.058Z,7.20
2022-12-26T02:28:57.053Z,7.19
2022-12-26T02:29:57.044Z,7.19
2022-12-26T02:30:57.058Z,7.18
2022-12-26T02:31:57.049Z,7.18
2022-12-26T02:32:56.998Z,7.19
2022-12-26T02:33:56.975Z,7.19
2022-12-26T02:34:56.968Z,7.18
2022-12-26T02:35:56.961Z,7.18
2022-12-26T02:36:56.955Z,7.16
2022-12-26T02:37:56.927Z,7.16
2022-12-26T02:38:56.916Z,7.15
2022-12-26T02:39:56.911Z,7.15
2022-12-26T02:40:56.888Z,7.15
2022-12-26T02:41:56.890Z,7.15
2022-12-26T02:42:56.867Z,7.14
2022-12-26T02:43:56.844Z,7.14
2022-12-26T02:44:56.849Z,7.13
2022-12-26T02:45:56.876Z,7.13
2022-12-26T02:46:56.819Z,7.12
2022-12-26T02:47:56.795Z,7.12
2022-12-26T02:48:56.838Z,7.11
2022-12-26T02:49:56.790Z,7.11
2022-12-26T02:50:56.766Z,7.11
2022-12-26T02:51:56.752Z,7.11
2022-12-26T02:52:56.743Z,7.11
2022-12-26T02:53:56.730Z,7.11
2022-12-26T02:54:56.708Z,7.12
2022-12-26T02:55:56.697Z,7.13
2022-12-26T02:56:56.689Z,7.14
2022-12-26T02:57:56.681Z,7.14
2022-12-26T02:58:56.676Z,7.14
2022-12-26T02:59:57.398Z,7.15
2022-12-26T03:00:56.727Z,7.15
2022-12-26T03:01:56.795Z,7.15
2022-12-26T03:02:56.654Z,7.15
2022-12-26T03:03:56.591Z,7.15
2022-12-26T03:04:56.616Z,7.16
2022-12-26T03:05:56.569Z,7.16
2022-12-26T03:06:56.559Z,7.17
2022-12-26T03:07:56.561Z,7.18
2022-12-26T03:08:56.553Z,7.18
2022-12-26T03:09:56.535Z,7.18
2022-12-26T03:10:56.525Z,7.19
2022-12-26T03:11:56.497Z,7.19
2022-12-26T03:12:56.486Z,7.20
2022-12-26T03:13:56.466Z,7.20
2022-12-26T03:14:56.479Z,7.21
2022-12-26T03:15:56.473Z,7.22
2022-12-26T03:16:56.607Z,7.23
2022-12-26T03:17:56.481Z,7.24
2022-12-26T03:18:58.656Z,7.24
2022-12-26T03:19:56.402Z,7.25
2022-12-26T03:20:56.387Z,7.26
2022-12-26T03:21:56.370Z,7.28
2022-12-26T03:22:56.350Z,7.29
2022-12-26T03:23:56.355Z,7.30
2022-12-26T03:24:56.340Z,7.31
2022-12-26T03:25:56.317Z,7.32
2022-12-26T03:26:56.304Z,7.32
2022-12-26T03:27:56.288Z,7.33
2022-12-26T03:28:56.294Z,7.34
2022-12-26T03:29:56.271Z,7.35
2022-12-26T03:30:56.293Z,7.35
2022-12-26T03:31:56.245Z,7.36
2022-12-26T03:32:56.223Z,7.38
2022-12-26T03:33:56.219Z,7.39
2022-12-26T03:34:56.216Z,7.40
2022-12-26T03:35:56.252Z,7.41
2022-12-26T03:36:56.173Z,7.42
2022-12-26T03:37:56.161Z,7.43
2022-12-26T03:38:56.281Z,7.44
2022-12-26T03:39:56.140Z,7.46
2022-12-26T03:40:56.207Z,7.47
2022-12-26T03:41:56.106Z,7.48
2022-12-26T03:42:56.124Z,7.50
2022-12-26T03:43:56.104Z,7.51
2022-12-26T03:44:56.095Z,7.52
2022-12-26T03:45:56.248Z,7.52
2022-12-26T03:46:56.119Z,7.53
2022-12-26T03:47:56.117Z,7.52
2022-12-26T03:48:56.078Z,7.52
2022-12-26T03:49:56.082Z,7.51
2022-12-26T03:50:56.017Z,7.52
2022-12-26T03:51:56.011Z,7.52
2022-12-26T03:52:56.039Z,7.53
2022-12-26T03:53:56.046Z,7.53
2022-12-26T03:54:56.030Z,7.53
2022-12-26T03:55:56.020Z,7.54
2022-12-26T03:56:56.008Z,7.54
2022-12-26T03:57:56.022Z,7.54
2022-12-26T03:58:55.893Z,7.54
2022-12-26T03:59:56.013Z,7.54
2022-12-26T04:00:55.903Z,7.53
2022-12-26T04:01:56.073Z,7.53
2022-12-26T04:02:55.838Z,7.52
2022-12-26T04:03:55.851Z,7.52
2022-12-26T04:04:55.868Z,7.53
2022-12-26T04:05:55.881Z,7.53
2022-12-26T04:06:55.808Z,7.53
2022-12-26T04:07:58.285Z,7.53
2022-12-26T04:08:55.776Z,7.54
2022-12-26T04:09:55.751Z,7.55
2022-12-26T04:10:55.835Z,7.55
2022-12-26T04:11:55.756Z,7.56
2022-12-26T04:12:55.801Z,7.56
2022-12-26T04:13:55.788Z,7.56
2022-12-26T04:14:55.703Z,7.55
2022-12-26T04:15:55.759Z,7.55
2022-12-26T04:16:55.678Z,7.54
2022-12-26T04:17:55.667Z,7.53
2022-12-26T04:18:55.661Z,7.52
2022-12-26T04:19:55.633Z,7.52
2022-12-26T04:20:55.659Z,7.51
2022-12-26T04:21:55.613Z,7.51
2022-12-26T04:22:55.600Z,7.50
2022-12-26T04:23:55.649Z,7.50
2022-12-26T04:24:55.563Z,7.50
2022-12-26T04:25:55.590Z,7.49
2022-12-26T04:26:55.567Z,7.49
2022-12-26T04:27:55.541Z,7.48
2022-12-26T04:28:55.511Z,7.47
2022-12-26T04:29:55.503Z,7.46
2022-12-26T04:30:55.586Z,7.45
2022-12-26T04:31:55.523Z,7.43
2022-12-26T04:32:55.454Z,7.42
2022-12-26T04:33:55.464Z,7.40
2022-12-26T04:34:55.432Z,7.39
2022-12-26T04:35:55.421Z,7.37
2022-12-26T04:36:55.428Z,7.36
2022-12-26T04:37:55.429Z,7.36
2022-12-26T04:38:55.400Z,7.35
2022-12-26T04:39:55.395Z,7.34
2022-12-26T04:40:55.361Z,7.33
2022-12-26T04:41:55.360Z,7.32
2022-12-26T04:42:55.335Z,7.31
2022-12-26T04:43:55.328Z,7.30
2022-12-26T04:44:55.324Z,7.29
2022-12-26T04:45:55.349Z,7.28
2022-12-26T04:46:55.407Z,7.28
2022-12-26T04:47:55.276Z,7.27
2022-12-26T04:48:55.254Z,7.25
2022-12-26T04:49:55.280Z,7.24
2022-12-26T04:50:55.231Z,7.23
2022-12-26T04:51:55.235Z,7.21
2022-12-26T04:52:55.254Z,7.19
2022-12-26T04:53:55.197Z,7.17
2022-12-26T04:54:55.187Z,7.14
2022-12-26T04:55:55.211Z,7.11
2022-12-26T04:56:55.180Z,7.09
2022-12-26T04:57:55.158Z,7.07
2022-12-26T04:58:55.147Z,7.05
2022-12-26T04:59:55.118Z,7.05
2022-12-26T05:00:55.103Z,7.04
2022-12-26T05:01:55.213Z,7.03
2022-12-26T05:02:55.113Z,7.02
2022-12-26T05:03:55.105Z,7.00
2022-12-26T05:04:55.066Z,6.99
2022-12-26T05:05:55.045Z,6.96
2022-12-26T05:06:55.056Z,6.94
2022-12-26T05:07:55.034Z,6.93
2022-12-26T05:08:55.015Z,6.92
2022-12-26T05:09:55.005Z,6.91
2022-12-26T05:10:54.980Z,6.90
2022-12-26T05:11:54.978Z,6.89
2022-12-26T05:12:54.955Z,6.88
2022-12-26T05:13:54.991Z,6.87
2022-12-26T05:14:54.937Z,6.87
2022-12-26T05:15:54.991Z,6.86
2022-12-26T05:16:54.916Z,6.85
2022-12-26T05:17:54.893Z,6.84
2022-12-26T05:18:54.872Z,6.84
2022-12-26T05:19:54.884Z,6.83
2022-12-26T05:20:54.856Z,6.83
2022-12-26T05:21:54.836Z,6.84
2022-12-26T05:22:54.859Z,6.85
2022-12-26T05:23:54.814Z,6.86
2022-12-26T05:24:54.795Z,6.88
2022-12-26T05:25:54.786Z,6.90
2022-12-26T05:26:54.767Z,6.91
2022-12-26T05:27:54.771Z,6.93
2022-12-26T05:28:54.783Z,6.94
2022-12-26T05:29:54.755Z,6.95
2022-12-26T05:30:54.755Z,6.97
2022-12-26T05:31:54.770Z,6.98
2022-12-26T05:32:54.738Z,7.00
2022-12-26T05:33:54.692Z,7.01
2022-12-26T05:34:54.665Z,7.01
2022-12-26T05:35:54.659Z,7.00
2022-12-26T05:36:54.645Z,7.00
2022-12-26T05:37:54.644Z,6.99
2022-12-26T05:38:54.636Z,6.98
2022-12-26T05:39:54.624Z,6.96
2022-12-26T05:40:54.594Z,6.95
2022-12-26T05:41:54.579Z,6.92
2022-12-26T05:42:54.605Z,6.90
2022-12-26T05:43:54.579Z,6.87
2022-12-26T05:44:54.556Z,6.83
2022-12-26T05:45:54.529Z,6.80
2022-12-26T05:46:54.607Z,6.77
2022-12-26T05:47:54.500Z,6.73
2022-12-26T05:48:54.505Z,6.69
2022-12-26T05:49:54.493Z,6.66
2022-12-26T05:50:54.467Z,6.63
2022-12-26T05:51:54.457Z,6.60
2022-12-26T05:52:54.446Z,6.58
2022-12-26T05:53:54.441Z,6.56
2022-12-26T05:54:54.414Z,6.54
2022-12-26T05:55:54.407Z,6.53
2022-12-26T05:56:54.387Z,6.51
2022-12-26T05:57:54.387Z,6.51
2022-12-26T05:58:54.404Z,6.50
2022-12-26T05:59:54.394Z,6.49
2022-12-26T06:00:54.342Z,6.49
2022-12-26T06:01:54.540Z,6.49
2022-12-26T06:02:54.440Z,6.48
2022-12-26T06:03:54.379Z,6.48
2022-12-26T06:04:54.353Z,6.47
2022-12-26T06:05:54.315Z,6.47
2022-12-26T06:06:54.278Z,6.47
2022-12-26T06:07:54.258Z,6.47
2022-12-26T06:08:54.283Z,6.47
2022-12-26T06:09:54.224Z,6.49
2022-12-26T06:10:54.221Z,6.51
2022-12-26T06:11:54.257Z,6.53
2022-12-26T06:12:54.221Z,6.56
2022-12-26T06:13:54.202Z,6.58
2022-12-26T06:14:54.187Z,6.61
2022-12-26T06:15:54.184Z,6.64
2022-12-26T06:16:54.243Z,6.66
2022-12-26T06:17:54.141Z,6.70
2022-12-26T06:18:54.118Z,6.73
2022-12-26T06:19:54.106Z,6.77
2022-12-26T06:20:54.087Z,6.83
2022-12-26T06:21:54.083Z,6.89
2022-12-26T06:22:54.053Z,6.95
2022-12-26T06:23:54.082Z,7.00
2022-12-26T06:24:54.037Z,7.05
2022-12-26T06:25:54.027Z,7.09
2022-12-26T06:26:54.013Z,7.12
2022-12-26T06:27:53.999Z,7.16
2022-12-26T06:28:53.989Z,7.20
2022-12-26T06:29:53.974Z,7.23
2022-12-26T06:30:53.957Z,7.27
2022-12-26T06:31:54.030Z,7.31
2022-12-26T06:32:53.942Z,7.34
2022-12-26T06:33:53.917Z,7.37
2022-12-26T06:34:53.919Z,7.39
2022-12-26T06:35:53.900Z,7.41
2022-12-26T06:36:53.877Z,7.43
2022-12-26T06:37:53.866Z,7.46
2022-12-26T06:38:53.874Z,7.49
2022-12-26T06:39:53.840Z,7.52
2022-12-26T06:40:53.837Z,7.53
2022-12-26T06:41:53.831Z,7.54
2022-12-26T06:42:53.805Z,7.53
2022-12-26T06:43:53.806Z,7.52
2022-12-26T06:44:53.787Z,7.49
2022-12-26T06:45:53.769Z,7.45
2022-12-26T06:46:53.820Z,7.39
2022-12-26T06:47:53.768Z,7.33
2022-12-26T06:48:53.805Z,7.28
2022-12-26T06:49:53.718Z,7.22
2022-12-26T06:50:53.707Z,7.15
2022-12-26T06:51:53.774Z,7.09
2022-12-26T06:52:53.705Z,7.03
2022-12-26T06:53:53.669Z,6.98
2022-12-26T06:54:53.674Z,6.93
2022-12-26T06:55:53.655Z,6.89
2022-12-26T06:56:53.619Z,6.86
2022-12-26T06:57:53.629Z,6.83
2022-12-26T06:58:53.598Z,6.80
2022-12-26T06:59:53.591Z,6.78
2022-12-26T07:00:53.608Z,6.75
2022-12-26T07:01:53.695Z,6.73
2022-12-26T07:02:53.589Z,6.71
2022-12-26T07:03:53.567Z,6.69
2022-12-26T07:04:53.547Z,6.67
2022-12-26T07:05:53.541Z,6.66
2022-12-26T07:06:53.498Z,6.65
2022-12-26T07:07:53.520Z,6.64
2022-12-26T07:08:53.474Z,6.63
2022-12-26T07:09:53.467Z,6.63
2022-12-26T07:10:53.457Z,6.63
2022-12-26T07:11:53.431Z,6.64
2022-12-26T07:12:53.424Z,6.64
2022-12-26T07:13:53.417Z,6.63
2022-12-26T07:14:56.697Z,6.62
2022-12-26T07:15:53.428Z,6.61
2022-12-26T07:16:53.460Z,6.60
2022-12-26T07:17:53.364Z,6.59
2022-12-26T07:18:53.345Z,6.58
2022-12-26T07:19:53.329Z,6.58
2022-12-26T07:20:53.323Z,6.57
2022-12-26T07:21:53.329Z,6.56
2022-12-26T07:22:53.303Z,6.56
2022-12-26T07:23:53.303Z,6.56
2022-12-26T07:24:53.310Z,6.56
2022-12-26T07:25:53.258Z,6.56
2022-12-26T07:26:53.252Z,6.56
2022-12-26T07:27:53.231Z,6.56
2022-12-26T07:28:53.224Z,6.55
2022-12-26T07:29:53.206Z,6.55
2022-12-26T07:30:53.206Z,6.55
2022-12-26T07:31:53.235Z,6.55
2022-12-26T07:32:53.163Z,6.55
2022-12-26T07:33:53.161Z,6.56
2022-12-26T07:34:53.175Z,6.57
2022-12-26T07:35:53.259Z,6.57
2022-12-26T07:36:53.120Z,6.58
2022-12-26T07:37:53.126Z,6.58
2022-12-26T07:38:53.105Z,6.58
2022-12-26T07:39:58.692Z,6.58
2022-12-26T07:40:53.077Z,6.58
2022-12-26T07:41:53.052Z,6.58
2022-12-26T07:42:53.054Z,6.58
2022-12-26T07:43:53.026Z,6.58
2022-12-26T07:44:53.033Z,6.58
2022-12-26T07:45:53.058Z,6.58
2022-12-26T07:46:53.010Z,6.58
2022-12-26T07:47:52.974Z,6.59
2022-12-26T07:48:52.959Z,6.60
2022-12-26T07:49:52.940Z,6.60
2022-12-26T07:50:52.977Z,6.62
2022-12-26T07:51:52.968Z,6.63
2022-12-26T07:52:52.912Z,6.65
2022-12-26T07:53:52.902Z,6.68
2022-12-26T07:54:52.875Z,6.71
2022-12-26T07:55:52.871Z,6.74
2022-12-26T07:56:52.882Z,6.77
2022-12-26T07:57:52.852Z,6.80
2022-12-26T07:58:52.817Z,6.84
2022-12-26T07:59:53.792Z,6.88
2022-12-26T08:00:52.891Z,6.91
2022-12-26T08:01:53.004Z,6.94
2022-12-26T08:02:52.868Z,6.96
2022-12-26T08:03:52.907Z,6.98
2022-12-26T08:04:52.748Z,7.01
2022-12-26T08:05:52.747Z,7.03
2022-12-26T08:06:52.744Z,7.05
2022-12-26T08:07:52.732Z,7.07
2022-12-26T08:08:52.779Z,7.09
2022-12-26T08:09:52.699Z,7.10
2022-12-26T08:10:52.707Z,7.12
2022-12-26T08:11:52.673Z,7.13
2022-12-26T08:12:52.666Z,7.15
2022-12-26T08:13:52.679Z,7.17
2022-12-26T08:14:52.634Z,7.19
2022-12-26T08:15:52.611Z,7.21
2022-12-26T08:16:53.766Z,7.24
2022-12-26T08:17:52.587Z,7.26
2022-12-26T08:18:52.570Z,7.28
2022-12-26T08:19:52.556Z,7.30
2022-12-26T08:20:52.550Z,7.32
2022-12-26T08:21:52.527Z,7.34
2022-12-26T08:22:52.536Z,7.37
2022-12-26T08:23:52.520Z,7.41
2022-12-26T08:24:52.492Z,7.45
2022-12-26T08:25:52.494Z,7.49
2022-12-26T08:26:52.466Z,7.53
2022-12-26T08:27:52.468Z,7.57
2022-12-26T08:28:52.442Z,7.60
2022-12-26T08:29:52.432Z,7.65
2022-12-26T08:30:52.435Z,7.69
2022-12-26T08:31:52.403Z,7.72
2022-12-26T08:32:52.401Z,7.76
2022-12-26T08:33:52.380Z,7.80
2022-12-26T08:34:52.360Z,7.84
2022-12-26T08:35:52.358Z,7.88
2022-12-26T08:36:52.343Z,7.92
2022-12-26T08:37:52.329Z,7.96
2022-12-26T08:38:52.320Z,8.00
2022-12-26T08:39:52.312Z,8.04
2022-12-26T08:40:52.300Z,8.09
2022-12-26T08:41:52.291Z,8.14
2022-12-26T08:43:12.200Z,8.19
2022-12-26T08:44:25.610Z,8.24
2022-12-26T08:44:52.252Z,8.30
2022-12-26T08:45:52.254Z,8.38
2022-12-26T08:46:52.216Z,8.45
2022-12-26T08:47:52.217Z,8.52
2022-12-26T08:48:52.218Z,8.58
2022-12-26T08:49:52.178Z,8.64
2022-12-26T08:50:52.207Z,8.70
2022-12-26T08:51:52.151Z,8.75
2022-12-26T08:52:52.137Z,8.80
2022-12-26T08:53:52.134Z,8.85
2022-12-26T08:54:52.124Z,8.90
2022-12-26T08:55:52.121Z,8.96
2022-12-26T08:56:52.095Z,9.03
2022-12-26T08:57:52.072Z,9.08
2022-12-26T08:58:52.080Z,9.14
2022-12-26T08:59:52.049Z,9.19
2022-12-26T09:00:55.452Z,9.23
2022-12-26T09:01:52.177Z,9.27
2022-12-26T09:02:52.223Z,9.31
2022-12-26T09:03:52.044Z,9.35
2022-12-26T09:04:51.989Z,9.39
2022-12-26T09:05:51.980Z,9.43
2022-12-26T09:06:51.969Z,9.48
2022-12-26T09:07:51.974Z,9.53
2022-12-26T09:08:51.970Z,9.58
2022-12-26T09:09:51.930Z,9.62
2022-12-26T09:10:51.915Z,9.64
2022-12-26T09:11:51.945Z,9.67
2022-12-26T09:12:51.903Z,9.69
2022-12-26T09:13:51.879Z,9.72
2022-12-26T09:14:51.880Z,9.74
2022-12-26T09:15:51.866Z,9.77
2022-12-26T09:16:51.979Z,9.80
2022-12-26T09:17:51.838Z,9.84
2022-12-26T09:18:51.852Z,9.87
2022-12-26T09:19:51.817Z,9.91
2022-12-26T09:20:51.812Z,9.95
2022-12-26T09:21:51.781Z,9.98
2022-12-26T09:22:51.783Z,10.01
2022-12-26T09:23:51.758Z,10.05
2022-12-26T09:24:51.788Z,10.08
2022-12-26T09:25:51.759Z,10.12
2022-12-26T09:26:51.800Z,10.16
2022-12-26T09:27:58.574Z,10.20
2022-12-26T09:28:51.709Z,10.23
2022-12-26T09:29:51.699Z,10.27
2022-12-26T09:30:51.711Z,10.30
2022-12-26T09:31:51.657Z,10.34
2022-12-26T09:32:51.654Z,10.38
2022-12-26T09:33:51.643Z,10.43
2022-12-26T09:34:51.637Z,10.47
2022-12-26T09:35:51.610Z,10.50
2022-12-26T09:36:51.597Z,10.54
2022-12-26T09:37:51.586Z,10.56
2022-12-26T09:38:51.572Z,10.57
2022-12-26T09:39:51.580Z,10.57
2022-12-26T09:40:51.582Z,10.56
2022-12-26T09:41:51.548Z,10.54
2022-12-26T09:42:51.523Z,10.52
2022-12-26T09:43:51.530Z,10.49
2022-12-26T09:44:51.499Z,10.47
2022-12-26T09:45:51.542Z,10.44
2022-12-26T09:46:51.488Z,10.41
2022-12-26T09:47:51.463Z,10.39
2022-12-26T09:48:51.474Z,10.37
2022-12-26T09:49:51.432Z,10.35
2022-12-26T09:50:51.437Z,10.33
2022-12-26T09:51:51.448Z,10.32
2022-12-26T09:52:51.428Z,10.30
2022-12-26T09:53:51.383Z,10.29
2022-12-26T09:54:51.402Z,10.29
2022-12-26T09:55:51.368Z,10.29
2022-12-26T09:57:13.023Z,10.29
2022-12-26T09:57:51.338Z,10.29
2022-12-26T09:58:51.332Z,10.29
2022-12-26T09:59:51.341Z,10.28
2022-12-26T10:00:51.315Z,10.28
2022-12-26T10:01:51.416Z,10.28
2022-12-26T10:02:51.294Z,10.28
2022-12-26T10:03:51.270Z,10.29
2022-12-26T10:04:51.301Z,10.29
2022-12-26T10:05:51.274Z,10.30
2022-12-26T10:06:51.258Z,10.31
2022-12-26T10:07:51.218Z,10.32
2022-12-26T10:08:51.201Z,10.33
2022-12-26T10:09:51.218Z,10.34
2022-12-26T10:10:51.203Z,10.36
2022-12-26T10:11:51.204Z,10.38
2022-12-26T10:12:51.153Z,10.40
2022-12-26T10:13:51.136Z,10.42
2022-12-26T10:14:51.140Z,10.45
2022-12-26T10:15:51.181Z,10.47
2022-12-26T10:16:51.144Z,10.50
2022-12-26T10:17:51.083Z,10.52
2022-12-26T10:18:51.076Z,10.55
2022-12-26T10:19:51.080Z,10.59
2022-12-26T10:20:51.085Z,10.64
2022-12-26T10:21:51.059Z,10.68
2022-12-26T10:22:51.027Z,10.73
2022-12-26T10:23:51.009Z,10.80
2022-12-26T10:24:51.951Z,10.88
2022-12-26T10:25:50.979Z,10.95
2022-12-26T10:26:51.007Z,11.03
2022-12-26T10:27:50.960Z,11.09
2022-12-26T10:28:50.951Z,11.17
2022-12-26T10:29:50.929Z,11.24
2022-12-26T10:30:51.023Z,11.32
2022-12-26T10:31:50.927Z,11.40
2022-12-26T10:32:50.886Z,11.47
2022-12-26T10:33:50.880Z,11.54
2022-12-26T10:34:50.866Z,11.61
2022-12-26T10:35:50.904Z,11.68
2022-12-26T10:36:50.849Z,11.75
2022-12-26T10:37:50.837Z,11.81
2022-12-26T10:38:50.819Z,11.87
2022-12-26T10:39:50.790Z,11.93
2022-12-26T10:40:50.801Z,11.98
2022-12-26T10:41:50.771Z,12.03
2022-12-26T10:42:50.752Z,12.08
2022-12-26T10:43:50.745Z,12.12
2022-12-26T10:44:50.764Z,12.15
2022-12-26T10:45:50.709Z,12.18
2022-12-26T10:46:50.727Z,12.19
2022-12-26T10:47:50.704Z,12.20
2022-12-26T10:48:50.670Z,12.21
2022-12-26T10:49:50.674Z,12.21
2022-12-26T10:50:50.655Z,12.20
2022-12-26T10:51:50.704Z,12.19
2022-12-26T10:52:50.625Z,12.19
2022-12-26T10:53:50.606Z,12.20
2022-12-26T10:54:50.605Z,12.21
2022-12-26T10:55:50.589Z,12.22
2022-12-26T10:56:50.583Z,12.24
2022-12-26T10:57:50.651Z,12.27
2022-12-26T10:58:50.553Z,12.29
2022-12-26T10:59:50.543Z,12.30
2022-12-26T11:00:50.521Z,12.31
2022-12-26T11:01:50.715Z,12.33
2022-12-26T11:02:50.724Z,12.34
2022-12-26T11:03:50.507Z,12.34
2022-12-26T11:05:15.666Z,12.35
2022-12-26T11:06:50.471Z,12.36
2022-12-26T11:07:50.437Z,12.37
2022-12-26T11:08:50.423Z,12.37
2022-12-26T11:09:50.406Z,12.38
2022-12-26T11:10:50.409Z,12.37
2022-12-26T11:11:50.378Z,12.36
2022-12-26T11:12:50.439Z,12.35
2022-12-26T11:13:50.379Z,12.34
2022-12-26T11:14:50.343Z,12.34
2022-12-26T11:15:50.364Z,12.34
2022-12-26T11:16:50.334Z,12.33
2022-12-26T11:17:50.338Z,12.33
2022-12-26T11:18:50.319Z,12.31
2022-12-26T11:19:50.308Z,12.30
2022-12-26T11:20:50.273Z,12.28
2022-12-26T11:21:50.251Z,12.26
2022-12-26T11:22:50.265Z,12.25
2022-12-26T11:23:50.231Z,12.24
2022-12-26T11:24:50.214Z,12.23
2022-12-26T11:25:50.204Z,12.22
2022-12-26T11:26:50.218Z,12.21
2022-12-26T11:27:50.190Z,12.19
2022-12-26T11:28:50.189Z,12.17
2022-12-26T11:29:50.164Z,12.15
2022-12-26T11:30:50.141Z,12.13
2022-12-26T11:31:50.122Z,12.09
2022-12-26T11:32:50.130Z,12.06
2022-12-26T11:33:50.132Z,12.03
2022-12-26T11:34:50.091Z,12.02
2022-12-26T11:35:50.078Z,12.01
2022-12-26T11:36:50.073Z,12.01
2022-12-26T11:37:50.081Z,12.00
2022-12-26T11:38:50.042Z,11.99
2022-12-26T11:39:50.026Z,11.98
2022-12-26T11:40:50.029Z,11.96
2022-12-26T11:41:49.997Z,11.94
2022-12-26T11:42:49.987Z,11.92
2022-12-26T11:43:49.980Z,11.91
2022-12-26T11:44:49.981Z,11.89
2022-12-26T11:45:49.985Z,11.87
2022-12-26T11:46:50.020Z,11.84
2022-12-26T11:47:49.916Z,11.82
2022-12-26T11:48:49.936Z,11.80
2022-12-26T11:49:49.917Z,11.78
2022-12-26T11:50:49.886Z,11.77
2022-12-26T11:51:55.496Z,11.76
2022-12-26T11:52:49.888Z,11.75
2022-12-26T11:53:49.848Z,11.75
2022-12-26T11:54:49.841Z,11.74
2022-12-26T11:55:49.843Z,11.74
2022-12-26T11:56:49.812Z,11.74
2022-12-26T11:57:53.967Z,11.73
2022-12-26T11:58:49.789Z,11.73
2022-12-26T11:59:49.814Z,11.73
2022-12-26T12:00:49.792Z,11.73
2022-12-26T12:01:49.869Z,11.73
2022-12-26T12:02:49.845Z,11.73
2022-12-26T12:03:50.433Z,11.73
2022-12-26T12:04:49.732Z,11.74
2022-12-26T12:05:49.701Z,11.76
2022-12-26T12:06:49.679Z,11.77
2022-12-26T12:07:49.671Z,11.78
2022-12-26T12:08:49.660Z,11.80
2022-12-26T12:09:49.638Z,11.82
2022-12-26T12:10:49.700Z,11.84
2022-12-26T12:11:49.613Z,11.85
2022-12-26T12:12:49.617Z,11.86
2022-12-26T12:13:49.587Z,11.86
2022-12-26T12:14:54.544Z,11.85
2022-12-26T12:15:49.598Z,11.85
2022-12-26T12:16:49.565Z,11.84
2022-12-26T12:17:49.540Z,11.83
2022-12-26T12:18:49.519Z,11.82
2022-12-26T12:19:49.535Z,11.81
2022-12-26T12:20:51.995Z,11.78
2022-12-26T12:21:49.483Z,11.75
2022-12-26T12:22:49.460Z,11.72
2022-12-26T12:23:49.456Z,11.68
2022-12-26T12:24:49.425Z,11.65
2022-12-26T12:25:49.419Z,11.61
2022-12-26T12:26:54.998Z,11.56
2022-12-26T12:27:49.417Z,11.50
2022-12-26T12:28:49.397Z,11.43
2022-12-26T12:29:49.395Z,11.37
2022-12-26T12:30:49.350Z,11.30
2022-12-26T12:31:49.415Z,11.24
2022-12-26T12:32:55.239Z,11.18
2022-12-26T12:33:49.323Z,11.11
2022-12-26T12:34:49.304Z,11.06
2022-12-26T12:35:49.293Z,11.01
2022-12-26T12:36:49.328Z,10.95
2022-12-26T12:37:49.278Z,10.89
2022-12-26T12:38:54.751Z,10.83
2022-12-26T12:39:49.264Z,10.76
2022-12-26T12:40:49.247Z,10.68
2022-12-26T12:41:49.214Z,10.61
2022-12-26T12:42:49.224Z,10.53
2022-12-26T12:43:49.238Z,10.45
2022-12-26T12:44:54.035Z,10.37
2022-12-26T12:45:49.203Z,10.29
2022-12-26T12:46:49.145Z,10.21
2022-12-26T12:47:49.155Z,10.14
2022-12-26T12:48:49.127Z,10.07
2022-12-26T12:49:49.111Z,10.01
2022-12-26T12:50:54.612Z,9.96
2022-12-26T12:51:49.091Z,9.90
2022-12-26T12:52:49.077Z,9.86
2022-12-26T12:53:49.079Z,9.83
2022-12-26T12:54:49.036Z,9.80
2022-12-26T12:55:49.035Z,9.78
2022-12-26T12:56:49.032Z,9.75
2022-12-26T12:57:49.026Z,9.73
2022-12-26T12:58:49.005Z,9.71
2022-12-26T12:59:49.006Z,9.68
2022-12-26T13:00:49.056Z,9.65
2022-12-26T13:01:49.099Z,9.62
2022-12-26T13:02:49.034Z,9.60
2022-12-26T13:03:48.939Z,9.59
2022-12-26T13:04:48.929Z,9.57
2022-12-26T13:05:48.917Z,9.56
2022-12-26T13:06:48.900Z,9.56
2022-12-26T13:07:48.887Z,9.55
2022-12-26T13:08:48.868Z,9.53
2022-12-26T13:09:48.850Z,9.50
2022-12-26T13:10:48.845Z,9.48
2022-12-26T13:11:48.839Z,9.46
2022-12-26T13:12:48.840Z,9.43